createdAt,value
2023-03-19T00:00:36.873Z,26.10
2023-03-19T00:03:06.655Z,26.10
2023-03-19T00:05:35.117Z,26.10
2023-03-19T00:08:03.442Z,26.00
2023-03-19T00:10:31.633Z,26.10
2023-03-19T00:12:59.788Z,26.00
2023-03-19T00:15:28.044Z,26.00
2023-03-19T00:17:56.722Z,25.90
2023-03-19T00:20:26.311Z,25.90
2023-03-19T00:22:54.469Z,25.90
2023-03-19T00:25:22.696Z,25.90
2023-03-19T00:27:51.574Z,25.90
2023-03-19T00:30:19.824Z,25.90
2023-03-19T00:32:48.311Z,25.90
2023-03-19T00:35:16.762Z,25.80
2023-03-19T00:37:46.320Z,25.80
2023-03-19T00:40:15.318Z,25.80
2023-03-19T00:42:44.844Z,25.80
2023-03-19T00:45:14.170Z,25.70
2023-03-19T00:47:42.373Z,25.70
2023-03-19T00:50:11.797Z,25.70
2023-03-19T00:52:39.982Z,25.60
2023-03-19T00:55:10.487Z,25.60
2023-03-19T00:57:38.651Z,25.60
2023-03-19T01:00:08.710Z,25.60
2023-03-19T01:02:36.866Z,25.60
2023-03-19T01:05:05.339Z,25.50
2023-03-19T01:07:34.338Z,25.50
2023-03-19T01:10:02.502Z,25.50
2023-03-19T01:12:32.116Z,25.50
2023-03-19T01:15:00.474Z,25.40
2023-03-19T01:17:28.620Z,25.40
2023-03-19T01:19:57.162Z,25.40
2023-03-19T01:22:25.682Z,25.40
2023-03-19T01:24:53.982Z,25.30
2023-03-19T01:27:22.307Z,25.30
2023-03-19T01:29:52.169Z,25.30
2023-03-19T01:32:20.410Z,25.20
2023-03-19T01:34:48.553Z,25.30
2023-03-19T01:37:16.736Z,25.20
2023-03-19T01:39:45.327Z,25.20
2023-03-19T01:42:14.086Z,25.20
2023-03-19T01:44:44.987Z,25.10
2023-03-19T01:47:20.433Z,25.10
2023-03-19T01:49:53.254Z,25.10
2023-03-19T01:52:22.370Z,25.10
2023-03-19T01:54:51.914Z,25.10
2023-03-19T01:57:21.046Z,25.10
2023-03-19T01:59:52.974Z,25.10
2023-03-19T02:02:26.757Z,25.10
2023-03-19T02:05:00.120Z,25.00
2023-03-19T02:07:29.875Z,24.90
2023-03-19T02:09:58.090Z,24.90
2023-03-19T02:12:26.495Z,24.90
2023-03-19T02:14:54.814Z,24.90
2023-03-19T02:17:24.541Z,24.90
2023-03-19T02:19:58.800Z,24.90
2023-03-19T02:22:30.470Z,24.90
2023-03-19T02:25:03.864Z,24.80
2023-03-19T02:27:33.449Z,24.80
2023-03-19T02:30:03.085Z,24.80
2023-03-19T02:32:31.158Z,24.70
2023-03-19T02:34:59.336Z,24.80
2023-03-19T02:37:33.660Z,24.70
2023-03-19T02:40:07.935Z,24.70
2023-03-19T02:42:37.824Z,24.70
2023-03-19T02:45:07.301Z,24.70
2023-03-19T02:47:35.898Z,24.60
2023-03-19T02:50:04.094Z,24.60
2023-03-19T02:52:32.300Z,24.60
2023-03-19T02:55:00.449Z,24.60
2023-03-19T02:57:28.652Z,24.60
2023-03-19T02:59:58.166Z,24.60
2023-03-19T03:02:27.418Z,24.50
2023-03-19T03:04:55.651Z,24.50
2023-03-19T03:07:23.870Z,24.60
2023-03-19T03:09:52.696Z,24.60
2023-03-19T03:12:20.895Z,24.50
2023-03-19T03:14:49.452Z,24.50
2023-03-19T03:17:19.286Z,24.50
2023-03-19T03:19:47.852Z,24.50
2023-03-19T03:22:16.052Z,24.40
2023-03-19T03:24:44.347Z,24.40
2023-03-19T03:27:12.767Z,24.40
2023-03-19T03:29:41.572Z,24.40
2023-03-19T03:32:09.895Z,24.30
2023-03-19T03:34:39.573Z,24.30
2023-03-19T03:37:07.804Z,24.30
2023-03-19T03:39:36.154Z,24.20
2023-03-19T03:42:04.451Z,24.20
2023-03-19T03:44:32.790Z,24.20
2023-03-19T03:47:00.983Z,24.20
2023-03-19T03:49:29.152Z,24.20
2023-03-19T03:51:58.727Z,24.20
2023-03-19T03:54:27.186Z,24.10
2023-03-19T03:56:55.395Z,24.10
2023-03-19T03:59:24.361Z,24.10
2023-03-19T04:01:52.567Z,24.10
2023-03-19T04:04:20.934Z,24.10
2023-03-19T04:06:49.134Z,24.10
2023-03-19T04:09:18.742Z,24.00
2023-03-19T04:11:47.002Z,24.00
2023-03-19T04:14:15.173Z,24.00
2023-03-19T04:16:44.289Z,24.00
2023-03-19T04:19:12.515Z,24.00
2023-03-19T04:21:41.258Z,24.00
2023-03-19T04:24:11.537Z,23.90
2023-03-19T04:26:41.178Z,23.90
2023-03-19T04:29:09.657Z,23.90
2023-03-19T04:31:38.274Z,23.90
2023-03-19T04:34:07.161Z,23.90
2023-03-19T04:36:35.320Z,23.90
2023-03-19T04:39:03.483Z,23.80
2023-03-19T04:41:31.652Z,23.80
2023-03-19T04:44:01.235Z,23.70
2023-03-19T04:46:29.794Z,23.70
2023-03-19T04:48:58.003Z,23.70
2023-03-19T04:51:26.374Z,23.70
2023-03-19T04:53:55.004Z,23.70
2023-03-19T04:56:23.183Z,23.80
2023-03-19T04:58:51.357Z,23.80
2023-03-19T05:01:21.142Z,23.90
2023-03-19T05:03:49.221Z,23.90
2023-03-19T05:06:19.963Z,23.90
2023-03-19T05:08:48.750Z,23.90
2023-03-19T05:11:16.928Z,23.90
2023-03-19T05:13:45.085Z,23.90
2023-03-19T05:16:13.981Z,23.90
2023-03-19T05:18:43.739Z,23.90
2023-03-19T05:21:12.782Z,23.90
2023-03-19T05:23:41.230Z,23.90
2023-03-19T05:26:09.697Z,23.90
2023-03-19T05:28:37.916Z,23.90
2023-03-19T05:31:07.078Z,23.90
2023-03-19T05:33:35.368Z,23.90
2023-03-19T05:36:05.349Z,23.90
2023-03-19T05:38:33.535Z,23.90
2023-03-19T05:41:06.100Z,23.90
2023-03-19T05:43:34.403Z,23.90
2023-03-19T05:46:03.339Z,24.00
2023-03-19T05:48:32.029Z,24.00
2023-03-19T05:51:00.724Z,24.00
2023-03-19T05:53:30.319Z,24.00
2023-03-19T05:55:58.445Z,24.00
2023-03-19T05:58:26.653Z,24.00
2023-03-19T06:00:57.831Z,24.10
2023-03-19T06:03:26.690Z,24.10
2023-03-19T06:05:55.101Z,24.20
2023-03-19T06:08:23.576Z,24.20
2023-03-19T06:10:54.349Z,24.20
2023-03-19T06:13:22.613Z,24.20
2023-03-19T06:15:52.050Z,24.20
2023-03-19T06:18:20.333Z,24.20
2023-03-19T06:20:48.694Z,24.30
2023-03-19T06:23:16.869Z,24.40
2023-03-19T06:25:45.037Z,24.40
2023-03-19T06:28:14.648Z,24.40
2023-03-19T06:30:42.998Z,24.50
2023-03-19T06:33:11.221Z,24.40
2023-03-19T06:35:39.461Z,24.50
2023-03-19T06:38:07.771Z,24.50
2023-03-19T06:40:36.260Z,24.50
2023-03-19T06:43:04.674Z,24.60
2023-03-19T06:45:34.255Z,24.60
2023-03-19T06:48:02.451Z,24.60
2023-03-19T06:50:30.634Z,24.70
2023-03-19T06:52:58.816Z,24.70
2023-03-19T06:55:27.039Z,24.70
2023-03-19T06:57:55.192Z,24.80
2023-03-19T07:00:23.837Z,24.80
2023-03-19T07:02:53.390Z,24.90
2023-03-19T07:05:21.597Z,24.90
2023-03-19T07:07:49.801Z,24.90
2023-03-19T07:10:20.376Z,24.90
2023-03-19T07:12:48.812Z,24.90
2023-03-19T07:15:17.718Z,25.00
2023-03-19T07:17:47.536Z,25.00
2023-03-19T07:20:17.359Z,25.00
2023-03-19T07:22:45.494Z,25.10
2023-03-19T07:25:14.186Z,25.10
2023-03-19T07:27:42.330Z,25.10
2023-03-19T07:30:12.276Z,25.10
2023-03-19T07:32:41.016Z,25.10
2023-03-19T07:35:10.641Z,25.10
2023-03-19T07:37:40.164Z,25.20
2023-03-19T07:40:09.951Z,25.30
2023-03-19T07:42:38.480Z,25.30
2023-03-19T07:45:08.478Z,25.30
2023-03-19T07:47:36.692Z,25.40
2023-03-19T07:50:05.318Z,25.50
2023-03-19T07:52:33.502Z,25.70
2023-03-19T07:55:04.087Z,26.00
2023-03-19T07:57:33.080Z,26.20
2023-03-19T08:00:01.480Z,26.40
2023-03-19T08:02:29.724Z,26.60
2023-03-19T08:04:58.657Z,26.80
2023-03-19T08:07:27.410Z,27.00
2023-03-19T08:09:56.976Z,27.00
2023-03-19T08:12:26.695Z,27.00
2023-03-19T08:14:54.738Z,27.10
2023-03-19T08:17:22.956Z,27.30
2023-03-19T08:19:51.120Z,27.60
2023-03-19T08:22:19.277Z,27.90
2023-03-19T08:24:47.420Z,28.30
2023-03-19T08:27:15.986Z,28.40
2023-03-19T08:29:45.627Z,28.40
2023-03-19T08:32:13.901Z,28.50
2023-03-19T08:34:41.893Z,28.70
2023-03-19T08:37:09.904Z,28.80
2023-03-19T08:39:37.829Z,29.00
2023-03-19T08:42:06.013Z,29.30
2023-03-19T08:44:33.954Z,29.20
2023-03-19T08:47:03.720Z,29.00
2023-03-19T08:49:31.801Z,28.90
2023-03-19T08:51:59.756Z,28.80
2023-03-19T08:54:27.704Z,29.20
2023-03-19T08:56:55.714Z,29.70
2023-03-19T08:59:23.621Z,30.10
2023-03-19T09:01:52.230Z,30.60
2023-03-19T09:04:22.059Z,30.90
2023-03-19T09:06:51.667Z,31.30
2023-03-19T09:09:20.158Z,31.70
2023-03-19T09:11:48.475Z,32.10
2023-03-19T09:14:17.971Z,32.50
2023-03-19T09:16:46.033Z,32.60
2023-03-19T09:19:13.992Z,32.70
2023-03-19T09:21:44.805Z,33.00
2023-03-19T09:24:12.754Z,33.20
2023-03-19T09:26:40.792Z,33.40
2023-03-19T09:29:09.144Z,33.90
2023-03-19T09:31:38.047Z,34.30
2023-03-19T09:34:06.953Z,34.70
2023-03-19T09:36:34.900Z,35.10
2023-03-19T09:39:04.522Z,35.10
2023-03-19T09:41:36.979Z,35.10
2023-03-19T09:44:05.610Z,35.10
2023-03-19T09:46:39.988Z,35.50
2023-03-19T09:49:13.207Z,36.10
2023-03-19T09:51:44.814Z,36.60
2023-03-19T09:54:27.587Z,36.80
2023-03-19T09:56:56.980Z,37.10
2023-03-19T09:59:25.776Z,37.40
2023-03-19T10:01:56.279Z,37.60
2023-03-19T10:04:36.439Z,38.00
2023-03-19T10:07:08.958Z,38.50
2023-03-19T10:09:45.445Z,38.70
2023-03-19T10:12:20.381Z,38.60
2023-03-19T10:15:00.819Z,38.60
2023-03-19T10:17:30.580Z,38.40
2023-03-19T10:19:59.825Z,38.50
2023-03-19T10:22:31.133Z,38.60
2023-03-19T10:24:59.286Z,38.70
2023-03-19T10:27:29.788Z,38.90
2023-03-19T10:29:57.758Z,39.20
2023-03-19T10:32:29.912Z,39.40
2023-03-19T10:34:59.684Z,39.50
2023-03-19T10:37:29.054Z,39.20
2023-03-19T10:39:57.885Z,38.90
2023-03-19T10:42:48.483Z,38.60
2023-03-19T10:45:21.342Z,37.80
2023-03-19T10:47:49.313Z,37.40
2023-03-19T10:50:18.362Z,37.00
2023-03-19T10:52:46.634Z,36.60
2023-03-19T10:55:15.520Z,36.20
2023-03-19T10:57:45.839Z,35.80
2023-03-19T11:00:18.417Z,35.70
2023-03-19T11:02:50.246Z,35.70
2023-03-19T11:05:25.251Z,35.70
2023-03-19T11:07:56.883Z,36.20
2023-03-19T11:10:26.702Z,36.30
2023-03-19T11:12:57.828Z,36.70
2023-03-19T11:15:28.966Z,37.70
2023-03-19T11:17:58.605Z,38.40
2023-03-19T11:20:29.152Z,39.00
2023-03-19T11:23:02.106Z,39.50
2023-03-19T11:25:30.950Z,40.00
2023-03-19T11:28:02.236Z,40.50
2023-03-19T11:30:35.003Z,40.80
2023-03-19T11:33:27.066Z,41.60
2023-03-19T11:35:59.300Z,41.80
2023-03-19T11:38:32.848Z,41.90
2023-03-19T11:41:06.306Z,41.80
2023-03-19T11:43:40.699Z,41.60
2023-03-19T11:46:14.634Z,41.40
2023-03-19T11:48:52.702Z,41.50
2023-03-19T11:51:23.980Z,42.00
2023-03-19T11:53:59.461Z,42.40
2023-03-19T11:56:33.382Z,42.60
2023-03-19T11:59:13.263Z,43.00
2023-03-19T12:01:55.964Z,43.70
2023-03-19T12:04:38.615Z,44.30
2023-03-19T12:07:11.045Z,44.80
2023-03-19T12:09:44.209Z,44.90
2023-03-19T12:12:16.337Z,44.90
2023-03-19T12:14:52.016Z,44.60
2023-03-19T12:17:27.719Z,43.90
2023-03-19T12:20:06.476Z,43.20
2023-03-19T12:22:43.174Z,42.60
2023-03-19T12:25:18.238Z,42.10
2023-03-19T12:27:48.862Z,41.60
2023-03-19T12:30:21.640Z,41.20
2023-03-19T12:33:05.224Z,40.80
2023-03-19T12:35:35.405Z,40.90
2023-03-19T12:38:06.646Z,40.80
2023-03-19T12:40:37.840Z,40.50
2023-03-19T12:43:07.470Z,40.10
2023-03-19T12:45:38.481Z,39.70
2023-03-19T12:48:09.432Z,39.30
2023-03-19T12:50:39.626Z,39.00
2023-03-19T12:53:10.857Z,38.70
2023-03-19T12:55:41.194Z,38.50
2023-03-19T12:58:13.364Z,38.30
2023-03-19T13:00:47.583Z,38.00
2023-03-19T13:03:18.843Z,37.90
2023-03-19T13:05:48.368Z,37.70
2023-03-19T13:08:19.170Z,37.60
2023-03-19T13:10:47.178Z,37.40
2023-03-19T13:13:24.519Z,37.20
2023-03-19T13:15:56.407Z,37.10
2023-03-19T13:18:30.655Z,36.80
2023-03-19T13:21:03.190Z,36.60
2023-03-19T13:23:33.850Z,36.40
2023-03-19T13:26:04.652Z,36.10
2023-03-19T13:28:35.139Z,35.90
2023-03-19T13:31:06.080Z,35.80
2023-03-19T13:33:35.134Z,35.60
2023-03-19T13:36:05.381Z,35.30
2023-03-19T13:38:39.077Z,35.10
2023-03-19T13:41:07.406Z,35.00
2023-03-19T13:43:53.335Z,34.80
2023-03-19T13:46:39.320Z,34.70
2023-03-19T13:49:11.900Z,34.50
2023-03-19T13:51:39.873Z,34.30
2023-03-19T13:54:16.451Z,34.10
2023-03-19T13:57:04.982Z,34.00
2023-03-19T13:59:33.491Z,33.90
2023-03-19T14:02:03.465Z,33.70
2023-03-19T14:04:32.764Z,33.50
2023-03-19T14:07:10.729Z,33.50
2023-03-19T14:09:40.060Z,33.40
2023-03-19T14:12:25.788Z,33.30
2023-03-19T14:14:55.188Z,33.20
2023-03-19T14:17:25.981Z,33.30
2023-03-19T14:19:54.882Z,33.30
2023-03-19T14:22:31.175Z,33.30
2023-03-19T14:25:06.117Z,33.30
2023-03-19T14:27:36.818Z,33.20
2023-03-19T14:30:11.500Z,33.10
2023-03-19T14:32:42.890Z,33.00
2023-03-19T14:35:15.842Z,32.90
2023-03-19T14:37:46.164Z,32.70
2023-03-19T14:40:16.117Z,32.60
2023-03-19T14:42:54.348Z,32.50
2023-03-19T14:45:44.660Z,32.40
2023-03-19T14:48:26.489Z,32.20
2023-03-19T14:51:11.631Z,32.10
2023-03-19T14:53:41.838Z,32.00
2023-03-19T14:56:15.214Z,31.80
2023-03-19T14:58:50.070Z,31.70
2023-03-19T15:01:18.536Z,31.70
2023-03-19T15:03:53.047Z,31.60
2023-03-19T15:06:21.062Z,31.50
2023-03-19T15:08:50.604Z,31.50
2023-03-19T15:11:32.566Z,31.40
2023-03-19T15:14:06.670Z,31.30
2023-03-19T15:16:41.858Z,31.30
2023-03-19T15:19:12.540Z,31.20
2023-03-19T15:21:40.826Z,31.10
2023-03-19T15:24:15.509Z,31.10
2023-03-19T15:26:43.545Z,31.10
2023-03-19T15:29:13.593Z,31.10
2023-03-19T15:31:51.533Z,31.10
2023-03-19T15:34:23.935Z,31.00
2023-03-19T15:36:54.607Z,30.90
2023-03-19T15:39:24.883Z,30.90
2023-03-19T15:41:53.454Z,30.90
2023-03-19T15:44:23.953Z,30.80
2023-03-19T15:46:52.307Z,30.80
2023-03-19T15:49:22.830Z,30.80
2023-03-19T15:51:53.909Z,30.80
2023-03-19T15:54:22.111Z,30.70
2023-03-19T15:56:50.871Z,30.70
2023-03-19T15:59:20.710Z,30.60
2023-03-19T16:01:49.992Z,30.60
2023-03-19T16:04:20.891Z,30.50
2023-03-19T16:06:49.147Z,30.50
2023-03-19T16:09:22.989Z,30.40
2023-03-19T16:11:51.753Z,30.30
2023-03-19T16:14:24.300Z,30.40
2023-03-19T16:16:52.590Z,30.40
2023-03-19T16:19:30.735Z,30.40
2023-03-19T16:21:59.238Z,30.30
2023-03-19T16:24:33.556Z,30.30
2023-03-19T16:27:03.760Z,30.30
2023-03-19T16:29:35.389Z,30.30
2023-03-19T16:32:04.307Z,30.30
2023-03-19T16:34:37.615Z,30.20
2023-03-19T16:37:20.459Z,30.20
2023-03-19T16:39:56.113Z,30.10
2023-03-19T16:42:31.718Z,30.10
2023-03-19T16:45:03.068Z,30.00
2023-03-19T16:47:31.051Z,30.00
2023-03-19T16:49:59.017Z,29.90
2023-03-19T16:52:27.062Z,29.90
2023-03-19T16:54:57.396Z,29.80
2023-03-19T16:57:25.554Z,29.80
2023-03-19T16:59:53.555Z,29.70
2023-03-19T17:02:21.523Z,29.70
2023-03-19T17:04:49.527Z,29.70
2023-03-19T17:07:17.556Z,29.60
2023-03-19T17:09:45.477Z,29.50
2023-03-19T17:12:17.455Z,29.50
2023-03-19T17:14:46.400Z,29.40
2023-03-19T17:17:17.796Z,29.40
2023-03-19T17:19:46.484Z,29.40
2023-03-19T17:22:14.639Z,29.40
2023-03-19T17:24:42.832Z,29.30
2023-03-19T17:27:10.963Z,29.30
2023-03-19T17:29:40.321Z,29.30
2023-03-19T17:32:14.609Z,29.20
2023-03-19T17:34:42.682Z,29.20
2023-03-19T17:37:13.291Z,29.10
2023-03-19T17:39:42.474Z,29.00
2023-03-19T17:42:16.113Z,28.90
2023-03-19T17:44:45.783Z,28.90
2023-03-19T17:47:13.978Z,28.80
2023-03-19T17:49:43.320Z,28.80
2023-03-19T17:52:14.904Z,28.80
2023-03-19T17:54:42.889Z,28.70
2023-03-19T17:57:13.202Z,28.70
2023-03-19T17:59:41.185Z,28.70
2023-03-19T18:02:22.415Z,28.60
2023-03-19T18:04:52.501Z,28.50
2023-03-19T18:07:20.769Z,28.50
2023-03-19T18:09:48.763Z,28.40
2023-03-19T18:12:16.922Z,28.40
2023-03-19T18:14:44.923Z,28.40
2023-03-19T18:17:16.099Z,28.40
2023-03-19T18:19:46.210Z,28.30
2023-03-19T18:22:14.998Z,28.30
2023-03-19T18:24:42.991Z,28.30
2023-03-19T18:27:11.200Z,28.30
2023-03-19T18:29:39.214Z,28.20
2023-03-19T18:32:08.473Z,28.20
2023-03-19T18:34:38.040Z,28.20
2023-03-19T18:37:06.202Z,28.20
2023-03-19T18:39:38.113Z,28.10
2023-03-19T18:42:06.388Z,28.10
2023-03-19T18:44:34.349Z,28.10
2023-03-19T18:47:02.277Z,28.10
2023-03-19T18:49:30.451Z,28.00
2023-03-19T18:52:03.070Z,28.00
2023-03-19T18:54:32.098Z,27.90
2023-03-19T18:57:00.728Z,27.90
2023-03-19T18:59:30.474Z,27.90
2023-03-19T19:02:00.852Z,27.90
2023-03-19T19:04:29.891Z,27.90
2023-03-19T19:06:59.887Z,27.80
2023-03-19T19:09:27.858Z,27.80
2023-03-19T19:11:57.496Z,27.80
2023-03-19T19:14:25.696Z,27.70
2023-03-19T19:16:54.581Z,27.70
2023-03-19T19:19:23.417Z,27.70
2023-03-19T19:21:51.819Z,27.60
2023-03-19T19:24:21.391Z,27.70
2023-03-19T19:26:51.541Z,27.60
2023-03-19T19:29:23.604Z,27.60
2023-03-19T19:31:51.907Z,27.60
2023-03-19T19:34:19.919Z,27.50
2023-03-19T19:36:47.854Z,27.50
2023-03-19T19:39:15.826Z,27.50
2023-03-19T19:41:46.633Z,27.50
2023-03-19T19:44:17.795Z,27.40
2023-03-19T19:46:45.809Z,27.40
2023-03-19T19:49:14.372Z,27.30
2023-03-19T19:51:42.317Z,27.30
2023-03-19T19:54:10.479Z,27.30
2023-03-19T19:56:39.198Z,27.30
2023-03-19T19:59:09.102Z,27.30
2023-03-19T20:01:37.133Z,27.30
2023-03-19T20:04:05.951Z,27.20
2023-03-19T20:06:34.058Z,27.20
2023-03-19T20:09:02.023Z,27.20
2023-03-19T20:11:32.298Z,27.10
2023-03-19T20:14:00.550Z,27.10
2023-03-19T20:16:29.948Z,27.10
2023-03-19T20:18:58.028Z,27.10
2023-03-19T20:21:26.268Z,27.10
2023-03-19T20:23:56.055Z,27.10
2023-03-19T20:26:24.835Z,27.00
2023-03-19T20:28:53.286Z,27.00
2023-03-19T20:31:24.370Z,27.00
2023-03-19T20:33:53.778Z,27.00
2023-03-19T20:36:21.735Z,26.90
2023-03-19T20:38:50.882Z,26.90
2023-03-19T20:41:20.292Z,26.90
2023-03-19T20:43:48.608Z,26.90
2023-03-19T20:46:17.035Z,26.80
2023-03-19T20:48:45.023Z,26.80
2023-03-19T20:51:18.502Z,26.80
2023-03-19T20:53:48.077Z,26.80
2023-03-19T20:56:17.465Z,26.80
2023-03-19T20:58:45.883Z,26.80
2023-03-19T21:01:15.537Z,26.70
2023-03-19T21:03:43.640Z,26.70
2023-03-19T21:06:16.480Z,26.70
2023-03-19T21:08:45.851Z,26.60
2023-03-19T21:11:17.685Z,26.60
2023-03-19T21:13:46.364Z,26.60
2023-03-19T21:16:17.517Z,26.60
2023-03-19T21:18:45.823Z,26.60
2023-03-19T21:21:15.414Z,26.60
2023-03-19T21:23:44.937Z,26.60
2023-03-19T21:26:16.466Z,26.50
2023-03-19T21:28:45.311Z,26.50
2023-03-19T21:31:17.924Z,26.50
2023-03-19T21:33:46.102Z,26.40
2023-03-19T21:36:16.148Z,26.40
2023-03-19T21:38:44.388Z,26.40
2023-03-19T21:41:17.936Z,26.40
2023-03-19T21:43:47.671Z,26.40
2023-03-19T21:46:24.408Z,26.30
2023-03-19T21:48:52.761Z,26.30
2023-03-19T21:51:22.202Z,26.20
2023-03-19T21:53:50.202Z,26.20
2023-03-19T21:56:20.627Z,26.20
2023-03-19T21:58:48.982Z,26.10
2023-03-19T22:01:18.302Z,26.10
2023-03-19T22:03:46.482Z,26.00
2023-03-19T22:06:14.703Z,26.10
2023-03-19T22:08:44.615Z,26.00
2023-03-19T22:11:15.134Z,25.90
2023-03-19T22:13:44.194Z,25.90
2023-03-19T22:16:17.642Z,25.80
2023-03-19T22:18:45.696Z,25.80
2023-03-19T22:21:15.357Z,25.80
2023-03-19T22:23:45.001Z,25.80
2023-03-19T22:26:25.534Z,25.80
2023-03-19T22:28:53.636Z,25.70
2023-03-19T22:31:21.921Z,25.70
2023-03-19T22:33:50.089Z,25.70
2023-03-19T22:36:18.164Z,25.60
2023-03-19T22:38:48.950Z,25.60
2023-03-19T22:41:18.946Z,25.60
2023-03-19T22:43:47.344Z,25.50
2023-03-19T22:46:16.424Z,25.50
2023-03-19T22:48:45.677Z,25.50
2023-03-19T22:51:15.808Z,25.40
2023-03-19T22:53:43.842Z,25.40
2023-03-19T22:56:13.914Z,25.30
2023-03-19T22:58:41.863Z,25.30
2023-03-19T23:01:27.705Z,25.30
2023-03-19T23:03:56.363Z,25.20
2023-03-19T23:06:30.637Z,25.20
2023-03-19T23:08:58.985Z,25.10
2023-03-19T23:11:28.335Z,25.10
2023-03-19T23:13:56.854Z,25.10
2023-03-19T23:16:25.662Z,25.00
2023-03-19T23:21:23.482Z,25.00
2023-03-19T23:23:52.315Z,25.00
2023-03-19T23:26:25.117Z,25.00
2023-03-19T23:28:54.911Z,24.90
2023-03-19T23:31:22.975Z,24.90
2023-03-19T23:33:51.002Z,24.90
2023-03-19T23:36:18.981Z,24.90
2023-03-19T23:38:47.572Z,24.90
2023-03-19T23:41:20.742Z,24.90
2023-03-19T23:43:48.823Z,24.90
2023-03-19T23:46:18.354Z,24.90
2023-03-19T23:48:46.452Z,24.90
2023-03-19T23:51:15.486Z,24.90
2023-03-19T23:53:44.123Z,24.80
2023-03-19T23:56:15.933Z,24.80
2023-03-19T23:58:44.323Z,24.80
